createdAt,value
2022-12-29T00:01:40.248Z,100093.39
2022-12-29T00:04:15.328Z,100089.23
2022-12-29T00:06:45.821Z,100086.60
2022-12-29T00:09:17.494Z,100084.35
2022-12-29T00:11:47.183Z,100083.00
2022-12-29T00:14:35.504Z,100073.74
2022-12-29T00:17:04.960Z,100076.34
2022-12-29T00:19:55.475Z,100071.45
2022-12-29T00:22:44.032Z,100070.22
2022-12-29T00:25:33.027Z,100073.95
2022-12-29T00:28:20.588Z,100070.39
2022-12-29T00:31:08.345Z,100068.61
2022-12-29T00:33:55.835Z,100052.14
2022-12-29T00:36:36.127Z,100023.73
2022-12-29T00:39:36.077Z,99997.46
2022-12-29T00:42:28.861Z,100001.86
2022-12-29T00:44:58.163Z,100008.23
2022-12-29T00:47:27.424Z,100022.98
2022-12-29T00:49:56.788Z,100024.66
2022-12-29T00:52:26.355Z,100018.98
2022-12-29T00:54:55.901Z,100019.59
2022-12-29T00:57:25.396Z,100023.55
2022-12-29T00:59:55.193Z,100029.45
2022-12-29T01:02:26.117Z,100027.61
2022-12-29T01:04:58.362Z,100029.91
2022-12-29T01:07:27.960Z,100024.23
2022-12-29T01:10:12.543Z,100022.64
2022-12-29T01:12:42.093Z,100018.14
2022-12-29T01:15:17.583Z,100024.31
2022-12-29T01:17:48.022Z,100024.64
2022-12-29T01:20:17.838Z,100015.98
2022-12-29T01:22:48.363Z,100009.73
2022-12-29T01:25:17.559Z,100006.31
2022-12-29T01:27:47.380Z,100001.51
2022-12-29T01:30:16.744Z,100003.95
2022-12-29T01:32:47.696Z,100009.81
2022-12-29T01:35:17.082Z,100013.55
2022-12-29T01:37:47.337Z,100006.48
2022-12-29T01:40:18.536Z,100000.77
2022-12-29T01:42:48.317Z,99998.38
2022-12-29T01:45:19.563Z,99990.67
2022-12-29T01:48:06.775Z,99987.29
2022-12-29T01:50:47.948Z,99986.19
2022-12-29T01:53:29.434Z,99982.98
2022-12-29T01:56:09.306Z,99976.46
2022-12-29T01:58:45.219Z,99968.04
2022-12-29T02:01:16.540Z,99966.34
2022-12-29T02:03:49.398Z,99961.35
2022-12-29T02:06:32.547Z,99958.23
2022-12-29T02:09:02.380Z,99955.15
2022-12-29T02:11:38.546Z,99952.89
2022-12-29T02:14:13.414Z,99944.79
2022-12-29T02:16:57.370Z,99944.13
2022-12-29T02:19:57.137Z,99944.77
2022-12-29T02:22:36.006Z,99950.31
2022-12-29T02:25:10.862Z,99947.39
2022-12-29T02:28:28.464Z,99940.48
2022-12-29T02:31:28.776Z,99937.91
2022-12-29T02:34:43.627Z,99930.02
2022-12-29T02:37:50.067Z,99934.77
2022-12-29T02:40:50.176Z,99929.06
2022-12-29T02:44:12.272Z,99918.88
2022-12-29T02:47:23.766Z,99913.37
2022-12-29T02:50:05.134Z,99912.87
2022-12-29T02:52:51.829Z,99914.25
2022-12-29T02:55:21.295Z,99913.52
2022-12-29T02:58:27.938Z,99914.02
2022-12-29T03:01:30.223Z,99914.56
2022-12-29T03:04:56.796Z,99905.46
2022-12-29T03:07:49.357Z,99900.95
2022-12-29T03:11:00.340Z,99896.27
2022-12-29T03:14:16.816Z,99898.11
2022-12-29T03:17:03.340Z,99892.71
2022-12-29T03:19:50.995Z,99893.66
2022-12-29T03:22:28.712Z,99891.95
2022-12-29T03:25:34.174Z,99893.84
2022-12-29T03:28:18.801Z,99889.54
2022-12-29T03:30:51.625Z,99885.53
2022-12-29T03:33:26.659Z,99884.09
2022-12-29T03:36:04.291Z,99882.42
2022-12-29T03:38:57.267Z,99882.02
2022-12-29T03:41:32.578Z,99876.45
2022-12-29T03:44:02.963Z,99875.73
2022-12-29T03:46:35.557Z,99878.16
2022-12-29T03:49:07.791Z,99877.16
2022-12-29T03:51:38.003Z,99878.95
2022-12-29T03:54:10.745Z,99875.22
2022-12-29T03:56:42.862Z,99872.63
2022-12-29T03:59:15.860Z,99876.19
2022-12-29T04:01:47.806Z,99873.88
2022-12-29T04:04:19.015Z,99876.05
2022-12-29T04:06:50.555Z,99872.85
2022-12-29T04:09:20.216Z,99871.00
2022-12-29T04:11:51.883Z,99871.36
2022-12-29T04:14:24.807Z,99868.26
2022-12-29T04:16:57.160Z,99865.69
2022-12-29T04:19:27.250Z,99868.83
2022-12-29T04:21:59.280Z,99874.20
2022-12-29T04:24:33.599Z,99878.85
2022-12-29T04:27:03.830Z,99880.92
2022-12-29T04:29:58.904Z,99878.21
2022-12-29T04:32:43.746Z,99871.02
2022-12-29T04:35:20.338Z,99863.61
2022-12-29T04:37:52.557Z,99858.44
2022-12-29T04:40:22.480Z,99854.83
2022-12-29T04:42:52.286Z,99857.55
2022-12-29T04:45:24.030Z,99855.23
2022-12-29T04:48:07.005Z,99853.46
2022-12-29T04:50:51.391Z,99852.64
2022-12-29T04:53:39.003Z,99851.88
2022-12-29T04:56:10.393Z,99849.20
2022-12-29T04:58:45.897Z,99851.40
2022-12-29T05:01:16.737Z,99853.81
2022-12-29T05:03:46.553Z,99852.71
2022-12-29T05:06:19.974Z,99851.80
2022-12-29T05:08:52.290Z,99850.23
2022-12-29T05:11:23.269Z,99850.39
2022-12-29T05:13:56.867Z,99850.73
2022-12-29T05:16:35.888Z,99847.33
2022-12-29T05:19:07.301Z,99848.10
2022-12-29T05:21:39.814Z,99847.58
2022-12-29T05:24:10.226Z,99849.59
2022-12-29T05:26:47.459Z,99852.56
2022-12-29T05:29:49.014Z,99855.48
2022-12-29T05:32:18.785Z,99858.74
2022-12-29T05:35:08.244Z,99855.63
2022-12-29T05:37:45.617Z,99847.48
2022-12-29T05:40:25.720Z,99842.04
2022-12-29T05:43:04.115Z,99844.48
2022-12-29T05:45:43.046Z,99836.04
2022-12-29T05:48:41.726Z,99830.39
2022-12-29T05:51:20.787Z,99823.98
2022-12-29T05:53:51.773Z,99821.67
2022-12-29T05:56:21.210Z,99821.25
2022-12-29T05:58:57.217Z,99819.88
2022-12-29T06:01:27.175Z,99817.32
2022-12-29T06:03:57.020Z,99817.21
2022-12-29T06:06:26.923Z,99815.30
2022-12-29T06:08:58.878Z,99818.19
2022-12-29T06:11:28.193Z,99822.05
2022-12-29T06:14:00.934Z,99824.98
2022-12-29T06:16:30.647Z,99820.64
2022-12-29T06:19:02.029Z,99822.61
2022-12-29T06:21:33.107Z,99823.42
2022-12-29T06:24:20.512Z,99820.58
2022-12-29T06:26:50.359Z,99813.45
2022-12-29T06:29:21.683Z,99813.13
2022-12-29T06:31:57.347Z,99817.70
2022-12-29T06:34:26.708Z,99821.05
2022-12-29T06:36:56.102Z,99822.71
2022-12-29T06:39:25.257Z,99821.59
2022-12-29T06:42:05.143Z,99816.02
2022-12-29T06:44:53.482Z,99813.43
2022-12-29T06:47:22.588Z,99810.11
2022-12-29T06:49:51.845Z,99811.55
2022-12-29T06:52:25.399Z,99810.65
2022-12-29T06:55:00.308Z,99809.23
2022-12-29T06:57:30.334Z,99810.23
2022-12-29T07:00:00.028Z,99812.04
2022-12-29T07:02:29.834Z,99817.52
2022-12-29T07:04:59.438Z,99814.68
2022-12-29T07:07:28.844Z,99817.00
2022-12-29T07:09:58.436Z,99824.15
2022-12-29T07:12:28.353Z,99827.16
2022-12-29T07:14:57.970Z,99831.61
2022-12-29T07:17:27.275Z,99835.38
2022-12-29T07:19:56.573Z,99838.58
2022-12-29T07:22:25.761Z,99835.02
2022-12-29T07:24:54.887Z,99830.97
2022-12-29T07:27:23.939Z,99827.18
2022-12-29T07:29:53.552Z,99828.27
2022-12-29T07:32:22.983Z,99826.58
2022-12-29T07:34:53.338Z,99827.11
2022-12-29T07:37:22.864Z,99829.80
2022-12-29T07:39:52.143Z,99827.40
2022-12-29T07:42:21.426Z,99827.53
2022-12-29T07:44:54.233Z,99826.23
2022-12-29T07:47:36.810Z,99822.67
2022-12-29T07:50:07.625Z,99820.88
2022-12-29T07:52:37.347Z,99823.68
2022-12-29T07:55:07.985Z,99822.08
2022-12-29T07:57:39.207Z,99826.98
2022-12-29T08:00:10.897Z,99829.98
2022-12-29T08:02:43.639Z,99828.85
2022-12-29T08:05:13.324Z,99827.03
2022-12-29T08:07:46.277Z,99824.35
2022-12-29T08:10:16.973Z,99825.98
2022-12-29T08:12:46.167Z,99828.20
2022-12-29T08:15:15.794Z,99834.37
2022-12-29T08:17:44.946Z,99833.09
2022-12-29T08:20:14.229Z,99829.23
2022-12-29T08:22:43.433Z,99829.73
2022-12-29T08:25:12.691Z,99825.92
2022-12-29T08:27:41.981Z,99822.20
2022-12-29T08:30:15.962Z,99822.27
2022-12-29T08:32:45.568Z,99820.12
2022-12-29T08:35:14.944Z,99819.73
2022-12-29T08:37:44.424Z,99813.93
2022-12-29T08:40:14.690Z,99807.62
2022-12-29T08:42:44.784Z,99808.27
2022-12-29T08:45:16.657Z,99811.83
2022-12-29T08:47:46.269Z,99813.67
2022-12-29T08:50:15.947Z,99815.00
2022-12-29T08:52:45.675Z,99816.70
2022-12-29T08:55:15.311Z,99821.40
2022-12-29T08:57:46.619Z,99823.09
2022-12-29T09:00:24.792Z,99817.27
2022-12-29T09:02:54.816Z,99812.33
2022-12-29T09:05:24.175Z,99802.73
2022-12-29T09:07:53.400Z,99803.12
2022-12-29T09:10:22.476Z,99800.56
2022-12-29T09:12:51.771Z,99796.02
2022-12-29T09:15:21.083Z,99797.02
2022-12-29T09:17:50.522Z,99805.85
2022-12-29T09:20:20.828Z,99810.64
2022-12-29T09:22:52.275Z,99803.54
2022-12-29T09:25:26.255Z,99801.03
2022-12-29T09:28:01.003Z,99799.31
2022-12-29T09:30:30.925Z,99803.58
2022-12-29T09:33:00.403Z,99804.71
2022-12-29T09:35:29.796Z,99808.61
2022-12-29T09:38:02.362Z,99805.91
2022-12-29T09:40:34.643Z,99803.91
2022-12-29T09:43:30.789Z,99808.44
2022-12-29T09:46:18.879Z,99807.73
2022-12-29T09:49:08.277Z,99803.55
2022-12-29T09:51:44.694Z,99801.23
2022-12-29T09:55:07.736Z,99803.23
2022-12-29T09:58:01.507Z,99800.73
2022-12-29T10:00:55.985Z,99803.30
2022-12-29T10:03:37.968Z,99804.65
2022-12-29T10:06:25.308Z,99803.73
2022-12-29T10:09:16.893Z,99804.30
2022-12-29T10:12:27.567Z,99802.39
2022-12-29T10:15:38.656Z,99802.52
2022-12-29T10:18:12.430Z,99798.52
2022-12-29T10:21:40.920Z,99791.58
2022-12-29T10:24:23.778Z,99786.65
2022-12-29T10:26:53.597Z,99786.17
2022-12-29T10:29:40.749Z,99784.86
2022-12-29T10:32:58.318Z,99785.99
2022-12-29T10:35:38.384Z,99782.33
2022-12-29T10:38:37.202Z,99779.58
2022-12-29T10:41:22.948Z,99775.16
2022-12-29T10:43:56.058Z,99774.33
2022-12-29T10:46:35.884Z,99771.31
2022-12-29T10:49:21.060Z,99768.91
2022-12-29T10:51:54.225Z,99761.84
2022-12-29T10:54:39.707Z,99758.50
2022-12-29T10:57:23.115Z,99758.20
2022-12-29T10:59:52.308Z,99755.52
2022-12-29T11:03:03.436Z,99754.27
2022-12-29T11:05:55.992Z,99749.42
2022-12-29T11:08:36.128Z,99751.36
2022-12-29T11:11:11.488Z,99749.23
2022-12-29T11:13:52.894Z,99749.72
2022-12-29T11:16:35.752Z,99749.75
2022-12-29T11:19:05.075Z,99748.96
2022-12-29T11:21:41.485Z,99746.86
2022-12-29T11:24:30.545Z,99748.56
2022-12-29T11:27:17.971Z,99749.55
2022-12-29T11:29:47.840Z,99738.26
2022-12-29T11:32:32.560Z,99739.77
2022-12-29T11:35:05.581Z,99740.56
2022-12-29T11:37:41.238Z,99742.93
2022-12-29T11:40:22.501Z,99735.29
2022-12-29T11:43:35.306Z,99735.61
2022-12-29T11:46:08.410Z,99736.72
2022-12-29T11:48:42.860Z,99740.08
2022-12-29T11:51:12.967Z,99743.00
2022-12-29T11:53:53.039Z,99739.26
2022-12-29T11:56:43.457Z,99740.64
2022-12-29T11:59:31.065Z,99738.70
2022-12-29T12:02:04.458Z,99732.27
2022-12-29T12:04:38.514Z,99731.70
2022-12-29T12:07:29.871Z,99734.77
2022-12-29T12:10:07.997Z,99727.48
2022-12-29T12:12:57.712Z,99726.78
2022-12-29T12:15:50.155Z,99723.45
2022-12-29T12:18:42.885Z,99724.02
2022-12-29T12:21:26.504Z,99721.84
2022-12-29T12:24:40.366Z,99711.85
2022-12-29T12:27:31.278Z,99719.98
2022-12-29T12:30:16.200Z,99722.75
2022-12-29T12:33:15.305Z,99714.17
2022-12-29T12:36:08.962Z,99714.17
2022-12-29T12:39:27.590Z,99713.94
2022-12-29T12:42:33.220Z,99714.20
2022-12-29T12:45:44.830Z,99714.16
2022-12-29T12:48:41.818Z,99716.05
2022-12-29T12:51:37.390Z,99705.43
2022-12-29T12:54:32.843Z,99705.32
2022-12-29T12:57:17.077Z,99707.22
2022-12-29T12:59:58.395Z,99710.70
2022-12-29T13:02:53.503Z,99705.93
2022-12-29T13:05:58.601Z,99707.52
2022-12-29T13:09:07.764Z,99703.83
2022-12-29T13:12:40.198Z,99708.48
2022-12-29T13:15:12.155Z,99714.81
2022-12-29T13:18:00.744Z,99713.36
2022-12-29T13:21:18.567Z,99710.96
2022-12-29T13:24:00.799Z,99712.00
2022-12-29T13:26:43.823Z,99709.44
2022-12-29T13:29:37.570Z,99711.06
2022-12-29T13:32:25.795Z,99715.74
2022-12-29T13:35:26.052Z,99718.57
2022-12-29T13:38:18.697Z,99720.20
2022-12-29T13:40:56.031Z,99724.11
2022-12-29T13:43:34.661Z,99727.01
2022-12-29T13:46:32.697Z,99728.09
2022-12-29T13:49:29.150Z,99725.42
2022-12-29T13:52:20.479Z,99727.55
2022-12-29T13:55:34.839Z,99727.17
2022-12-29T13:58:37.778Z,99722.98
2022-12-29T14:01:58.109Z,99723.59
2022-12-29T14:04:36.608Z,99727.18
2022-12-29T14:07:19.036Z,99730.81
2022-12-29T14:09:57.842Z,99733.39
2022-12-29T14:12:36.072Z,99734.88
2022-12-29T14:15:11.513Z,99730.86
2022-12-29T14:18:05.064Z,99736.83
2022-12-29T14:20:35.999Z,99739.75
2022-12-29T14:23:11.904Z,99741.73
2022-12-29T14:26:33.420Z,99748.73
2022-12-29T14:29:50.319Z,99747.63
2022-12-29T14:32:30.463Z,99750.54
2022-12-29T14:35:50.606Z,99749.30
2022-12-29T14:38:25.525Z,99748.92
2022-12-29T14:41:35.917Z,99747.20
2022-12-29T14:44:08.528Z,99747.08
2022-12-29T14:47:10.070Z,99741.96
2022-12-29T14:49:45.280Z,99744.73
2022-12-29T14:52:21.133Z,99745.41
2022-12-29T14:54:55.817Z,99744.89
2022-12-29T14:57:48.714Z,99743.36
2022-12-29T15:00:34.019Z,99743.75
2022-12-29T15:03:14.166Z,99742.02
2022-12-29T15:05:57.706Z,99744.56
2022-12-29T15:08:32.034Z,99747.04
2022-12-29T15:11:24.763Z,99746.55
2022-12-29T15:13:53.980Z,99748.77
2022-12-29T15:16:32.965Z,99751.80
2022-12-29T15:19:06.909Z,99747.67
2022-12-29T15:21:37.869Z,99747.57
2022-12-29T15:24:07.635Z,99744.69
2022-12-29T15:26:42.480Z,99746.27
2022-12-29T15:30:02.207Z,99741.59
2022-12-29T15:32:44.342Z,99743.81
2022-12-29T15:35:33.688Z,99741.90
2022-12-29T15:38:31.177Z,99740.38
2022-12-29T15:41:58.511Z,99742.50
2022-12-29T15:44:43.470Z,99747.23
2022-12-29T15:47:29.823Z,99748.65
2022-12-29T15:50:17.625Z,99751.35
2022-12-29T15:52:47.239Z,99751.55
2022-12-29T15:55:36.520Z,99755.64
2022-12-29T15:58:20.452Z,99755.70
2022-12-29T16:01:02.849Z,99751.00
2022-12-29T16:03:37.456Z,99745.13
2022-12-29T16:06:26.520Z,99745.48
2022-12-29T16:09:08.098Z,99748.64
2022-12-29T16:11:41.518Z,99748.51
2022-12-29T16:14:18.866Z,99746.42
2022-12-29T16:16:50.844Z,99748.19
2022-12-29T16:19:28.111Z,99749.93
2022-12-29T16:22:02.032Z,99754.20
2022-12-29T16:24:34.466Z,99758.14
2022-12-29T16:27:38.388Z,99762.02
2022-12-29T16:30:33.921Z,99757.98
2022-12-29T16:33:07.127Z,99753.54
2022-12-29T16:35:49.525Z,99758.20
2022-12-29T16:38:34.518Z,99763.69
2022-12-29T16:41:04.729Z,99769.05
2022-12-29T16:43:43.126Z,99771.52
2022-12-29T16:46:31.852Z,99774.02
2022-12-29T16:49:12.632Z,99774.33
2022-12-29T16:51:46.928Z,99776.71
2022-12-29T16:54:25.065Z,99783.14
2022-12-29T16:56:54.712Z,99784.95
2022-12-29T16:59:43.940Z,99787.76
2022-12-29T17:02:22.559Z,99789.46
2022-12-29T17:04:55.125Z,99795.75
2022-12-29T17:07:29.095Z,99792.48
2022-12-29T17:10:03.775Z,99792.48
2022-12-29T17:12:37.724Z,99790.87
2022-12-29T17:15:33.305Z,99792.56
2022-12-29T17:18:13.360Z,99791.43
2022-12-29T17:20:46.503Z,99798.07
2022-12-29T17:23:25.950Z,99798.61
2022-12-29T17:25:59.505Z,99796.40
2022-12-29T17:28:32.353Z,99800.38
2022-12-29T17:31:06.040Z,99804.19
2022-12-29T17:33:40.287Z,99803.98
2022-12-29T17:36:17.352Z,99806.30
2022-12-29T17:38:47.447Z,99806.10
2022-12-29T17:41:20.048Z,99801.83
2022-12-29T17:43:51.280Z,99806.77
2022-12-29T17:46:22.773Z,99807.98
2022-12-29T17:48:54.047Z,99806.34
2022-12-29T17:51:24.936Z,99808.92
2022-12-29T17:53:54.580Z,99812.44
2022-12-29T17:56:24.205Z,99811.46
2022-12-29T17:59:00.829Z,99810.50
2022-12-29T18:01:36.219Z,99813.59
2022-12-29T18:04:07.612Z,99811.40
2022-12-29T18:06:36.824Z,99810.59
2022-12-29T18:09:08.964Z,99806.72
2022-12-29T18:11:43.647Z,99811.55
2022-12-29T18:14:17.786Z,99807.34
2022-12-29T18:16:59.347Z,99811.36
2022-12-29T18:19:33.954Z,99818.89
2022-12-29T18:22:05.309Z,99820.74
2022-12-29T18:24:34.710Z,99821.77
2022-12-29T18:27:19.203Z,99822.79
2022-12-29T18:29:50.363Z,99819.40
2022-12-29T18:32:24.278Z,99816.74
2022-12-29T18:34:54.103Z,99818.45
2022-12-29T18:37:23.685Z,99819.87
2022-12-29T18:39:53.141Z,99822.41
2022-12-29T18:42:22.495Z,99820.09
2022-12-29T18:44:55.569Z,99821.27
2022-12-29T18:47:24.779Z,99816.56
2022-12-29T18:49:58.321Z,99814.11
2022-12-29T18:52:47.992Z,99816.27
2022-12-29T18:58:17.783Z,99815.93
2022-12-29T19:00:53.496Z,99812.48
2022-12-29T19:03:26.145Z,99810.72
2022-12-29T19:05:57.695Z,99810.57
2022-12-29T19:13:01.022Z,99813.31
2022-12-29T19:15:34.347Z,99815.23
2022-12-29T19:18:42.482Z,99816.16
2022-12-29T19:20:57.995Z,99818.18
2022-12-29T19:23:28.574Z,99821.89
2022-12-29T19:25:57.900Z,99819.11
2022-12-29T19:28:29.538Z,99817.27
2022-12-29T19:31:02.840Z,99818.85
2022-12-29T19:33:32.670Z,99819.22
2022-12-29T19:36:08.310Z,99821.67
2022-12-29T19:38:39.607Z,99824.13
2022-12-29T19:41:15.622Z,99825.70
2022-12-29T19:43:50.795Z,99828.34
2022-12-29T19:46:24.644Z,99833.11
2022-12-29T19:49:05.998Z,99829.96
2022-12-29T19:51:39.662Z,99835.23
2022-12-29T19:54:11.483Z,99832.09
2022-12-29T19:56:44.610Z,99833.95
2022-12-29T19:59:14.140Z,99840.09
2022-12-29T20:01:44.025Z,99838.27
2022-12-29T20:04:13.540Z,99844.80
2022-12-29T20:06:48.831Z,99845.89
2022-12-29T20:09:28.654Z,99841.73
2022-12-29T20:12:00.254Z,99841.52
2022-12-29T20:14:29.681Z,99841.14
2022-12-29T20:17:10.686Z,99840.20
2022-12-29T20:19:53.281Z,99844.92
2022-12-29T20:22:23.659Z,99849.21
2022-12-29T20:25:05.129Z,99850.16
2022-12-29T20:27:43.304Z,99847.05
2022-12-29T20:30:14.264Z,99850.29
2022-12-29T20:32:46.879Z,99843.52
2022-12-29T20:35:22.952Z,99846.39
2022-12-29T20:37:53.263Z,99842.51
2022-12-29T20:40:23.244Z,99842.30
2022-12-29T20:42:54.265Z,99843.98
2022-12-29T20:45:26.508Z,99846.90
2022-12-29T20:47:56.206Z,99850.96
2022-12-29T20:50:29.083Z,99849.30
2022-12-29T20:52:58.732Z,99847.80
2022-12-29T20:55:28.381Z,99851.25
2022-12-29T20:58:23.176Z,99855.84
2022-12-29T21:00:51.898Z,99857.98
2022-12-29T21:03:23.047Z,99860.34
2022-12-29T21:05:54.270Z,99862.52
2022-12-29T21:08:24.948Z,99858.52
2022-12-29T21:10:57.503Z,99862.90
2022-12-29T21:13:31.248Z,99863.98
2022-12-29T21:16:08.351Z,99865.13
2022-12-29T21:18:38.272Z,99867.13
2022-12-29T21:21:20.097Z,99863.67
2022-12-29T21:23:50.884Z,99864.94
2022-12-29T21:26:24.182Z,99866.45
2022-12-29T21:28:53.691Z,99866.59
2022-12-29T21:31:33.660Z,99867.63
2022-12-29T21:34:05.733Z,99871.29
2022-12-29T21:36:34.892Z,99880.48
2022-12-29T21:39:05.145Z,99883.77
2022-12-29T21:41:35.284Z,99879.69
2022-12-29T21:44:23.410Z,99876.92
2022-12-29T21:46:52.779Z,99883.73
2022-12-29T21:49:26.419Z,99885.85
2022-12-29T21:51:57.735Z,99889.17
2022-12-29T21:54:48.767Z,99889.28
2022-12-29T21:57:38.205Z,99890.88
2022-12-29T22:00:28.824Z,99892.83
2022-12-29T22:03:22.562Z,99892.85
2022-12-29T22:06:14.047Z,99895.28
2022-12-29T22:09:02.300Z,99900.59
2022-12-29T22:11:50.567Z,99899.42
2022-12-29T22:14:23.611Z,99900.44
2022-12-29T22:16:56.160Z,99895.80
2022-12-29T22:19:28.494Z,99895.17
2022-12-29T22:22:00.032Z,99894.06
2022-12-29T22:24:29.679Z,99897.66
2022-12-29T22:26:59.339Z,99900.48
2022-12-29T22:29:28.619Z,99903.54
2022-12-29T22:31:57.978Z,99907.70
2022-12-29T22:34:27.550Z,99903.04
2022-12-29T22:36:57.027Z,99904.90
2022-12-29T22:39:29.893Z,99904.14
2022-12-29T22:41:59.399Z,99901.03
2022-12-29T22:44:31.513Z,99896.16
2022-12-29T22:47:02.019Z,99896.33
2022-12-29T22:49:31.801Z,99895.81
2022-12-29T22:52:01.661Z,99899.17
2022-12-29T22:54:32.059Z,99898.38
2022-12-29T22:57:02.992Z,99900.08
2022-12-29T22:59:33.079Z,99895.66
2022-12-29T23:02:02.360Z,99891.15
2022-12-29T23:07:29.068Z,99889.30
2022-12-29T23:10:11.081Z,99891.40
2022-12-29T23:12:42.965Z,99884.79
2022-12-29T23:15:15.004Z,99881.29
2022-12-29T23:17:46.257Z,99888.84
2022-12-29T23:20:15.498Z,99887.76
2022-12-29T23:22:44.956Z,99884.89
2022-12-29T23:25:14.729Z,99888.87
2022-12-29T23:27:54.563Z,99897.52
2022-12-29T23:30:24.620Z,99904.84
2022-12-29T23:33:03.765Z,99908.59
2022-12-29T23:35:35.797Z,99910.84
2022-12-29T23:38:05.131Z,99910.98
2022-12-29T23:40:34.410Z,99912.65
2022-12-29T23:43:03.725Z,99913.34
2022-12-29T23:45:36.870Z,99912.13
2022-12-29T23:48:06.668Z,99913.88
2022-12-29T23:50:39.090Z,99913.45
2022-12-29T23:53:10.303Z,99913.82
2022-12-29T23:55:43.526Z,99912.75
2022-12-29T23:58:12.675Z,99911.11
